createdAt,value
2019-06-08T00:00:58.454Z,100.00
2019-06-08T00:03:30.520Z,100.00
2019-06-08T00:06:02.636Z,100.00
2019-06-08T00:08:34.608Z,100.00
2019-06-08T00:11:06.662Z,100.00
2019-06-08T00:13:38.737Z,100.00
2019-06-08T00:16:10.810Z,100.00
2019-06-08T00:18:43.295Z,100.00
2019-06-08T00:21:15.539Z,100.00
2019-06-08T00:23:47.634Z,100.00
2019-06-08T00:26:20.057Z,100.00
2019-06-08T00:28:52.149Z,100.00
2019-06-08T00:31:24.312Z,100.00
2019-06-08T00:33:56.503Z,100.00
2019-06-08T00:36:28.583Z,100.00
2019-06-08T00:39:00.562Z,100.00
2019-06-08T00:41:33.805Z,100.00
2019-06-08T00:44:07.942Z,100.00
2019-06-08T00:46:40.533Z,100.00
2019-06-08T00:49:12.529Z,100.00
2019-06-08T00:51:44.673Z,100.00
2019-06-08T00:54:17.390Z,100.00
2019-06-08T00:56:49.494Z,100.00
2019-06-08T00:59:24.017Z,100.00
2019-06-08T01:01:56.353Z,100.00
2019-06-08T01:04:29.147Z,100.00
2019-06-08T01:07:01.191Z,100.00
2019-06-08T01:09:33.176Z,100.00
2019-06-08T01:12:06.930Z,100.00
2019-06-08T01:14:38.901Z,100.00
2019-06-08T01:17:12.008Z,100.00
2019-06-08T01:19:44.177Z,100.00
2019-06-08T01:22:16.216Z,100.00
2019-06-08T01:24:48.350Z,100.00
2019-06-08T01:27:22.019Z,100.00
2019-06-08T01:29:54.223Z,100.00
2019-06-08T01:32:26.451Z,100.00
2019-06-08T01:34:58.493Z,100.00
2019-06-08T01:37:31.290Z,100.00
2019-06-08T01:40:03.396Z,100.00
2019-06-08T01:42:35.442Z,100.00
2019-06-08T01:45:07.952Z,100.00
2019-06-08T01:47:39.938Z,100.00
2019-06-08T01:50:12.309Z,100.00
2019-06-08T01:52:44.290Z,100.00
2019-06-08T01:55:16.327Z,100.00
2019-06-08T01:57:48.690Z,100.00
2019-06-08T02:00:30.184Z,100.00
2019-06-08T02:02:54.965Z,100.00
2019-06-08T02:05:28.201Z,100.00
2019-06-08T02:08:00.380Z,100.00
2019-06-08T02:10:32.895Z,100.00
2019-06-08T02:13:08.469Z,100.00
2019-06-08T02:15:38.995Z,100.00
2019-06-08T02:18:11.021Z,100.00
2019-06-08T02:20:43.016Z,100.00
2019-06-08T02:23:15.021Z,100.00
2019-06-08T02:25:48.105Z,100.00
2019-06-08T02:28:20.147Z,100.00
2019-06-08T02:30:52.093Z,100.00
2019-06-08T02:33:24.204Z,100.00
2019-06-08T02:35:56.715Z,100.00
2019-06-08T02:38:29.968Z,100.00
2019-06-08T02:41:02.761Z,100.00
2019-06-08T02:43:35.681Z,100.00
2019-06-08T02:46:08.883Z,100.00
2019-06-08T02:49:00.310Z,100.00
2019-06-08T02:51:16.163Z,100.00
2019-06-08T02:53:51.918Z,100.00
2019-06-08T02:56:26.118Z,100.00
2019-06-08T02:58:59.626Z,100.00
2019-06-08T03:01:36.029Z,100.00
2019-06-08T03:04:08.343Z,100.00
2019-06-08T03:06:42.062Z,100.00
2019-06-08T03:09:14.085Z,100.00
2019-06-08T03:11:47.790Z,100.00
2019-06-08T03:14:22.669Z,100.00
2019-06-08T03:16:54.705Z,100.00
2019-06-08T03:19:26.693Z,100.00
2019-06-08T03:22:00.360Z,100.00
2019-06-08T03:24:34.870Z,100.00
2019-06-08T03:27:07.876Z,100.00
2019-06-08T03:29:41.684Z,100.00
2019-06-08T03:32:13.581Z,100.00
2019-06-08T03:34:54.366Z,100.00
2019-06-08T03:37:20.128Z,100.00
2019-06-08T03:39:52.175Z,100.00
2019-06-08T03:42:24.244Z,100.00
2019-06-08T03:44:57.945Z,100.00
2019-06-08T03:47:29.965Z,100.00
2019-06-08T03:50:02.178Z,100.00
2019-06-08T03:52:35.415Z,100.00
2019-06-08T03:55:08.245Z,100.00
2019-06-08T03:57:40.763Z,100.00
2019-06-08T04:00:15.702Z,100.00
2019-06-08T04:02:47.694Z,100.00
2019-06-08T04:05:19.830Z,100.00
2019-06-08T04:07:51.854Z,100.00
2019-06-08T04:10:23.923Z,100.00
2019-06-08T04:12:55.953Z,100.00
2019-06-08T04:15:27.933Z,100.00
2019-06-08T04:18:00.029Z,100.00
2019-06-08T04:20:33.700Z,100.00
2019-06-08T04:23:05.746Z,100.00
2019-06-08T04:25:38.360Z,100.00
2019-06-08T04:28:11.045Z,100.00
2019-06-08T04:30:45.275Z,100.00
2019-06-08T04:33:17.736Z,100.00
2019-06-08T04:35:50.770Z,100.00
2019-06-08T04:38:23.563Z,100.00
2019-06-08T04:40:57.366Z,100.00
2019-06-08T04:43:29.354Z,100.00
2019-06-08T04:46:02.255Z,100.00
2019-06-08T04:48:34.269Z,100.00
2019-06-08T04:51:06.455Z,100.00
2019-06-08T04:53:38.597Z,100.00
2019-06-08T04:56:10.703Z,100.00
2019-06-08T04:58:45.936Z,100.00
2019-06-08T05:01:18.043Z,100.00
2019-06-08T05:03:50.490Z,100.00
2019-06-08T05:06:22.611Z,100.00
2019-06-08T05:08:55.004Z,100.00
2019-06-08T05:11:27.026Z,100.00
2019-06-08T05:14:00.725Z,100.00
2019-06-08T05:16:32.789Z,100.00
2019-06-08T05:19:04.870Z,100.00
2019-06-08T05:21:37.078Z,100.00
2019-06-08T05:24:09.165Z,100.00
2019-06-08T05:26:41.851Z,100.00
2019-06-08T05:29:16.243Z,100.00
2019-06-08T05:31:49.698Z,100.00
2019-06-08T05:34:22.598Z,100.00
2019-06-08T05:36:54.636Z,100.00
2019-06-08T05:39:27.628Z,100.00
2019-06-08T05:41:59.818Z,100.00
2019-06-08T05:44:31.890Z,100.00
2019-06-08T05:47:04.201Z,96.07
2019-06-08T05:49:36.364Z,85.68
2019-06-08T05:52:08.828Z,74.80
2019-06-08T05:54:41.795Z,68.32
2019-06-08T05:57:15.493Z,61.78
2019-06-08T05:59:48.211Z,56.24
2019-06-08T06:02:20.253Z,54.10
2019-06-08T06:04:53.920Z,55.15
2019-06-08T06:07:26.368Z,54.43
2019-06-08T06:09:58.376Z,52.92
2019-06-08T06:12:31.811Z,52.54
2019-06-08T06:15:05.418Z,55.27
2019-06-08T06:17:37.495Z,54.52
2019-06-08T06:20:10.269Z,52.92
2019-06-08T06:22:43.822Z,48.78
2019-06-08T06:25:16.697Z,43.49
2019-06-08T06:27:49.651Z,41.34
2019-06-08T06:30:24.033Z,40.11
2019-06-08T06:32:56.869Z,40.14
2019-06-08T06:35:28.853Z,40.50
2019-06-08T06:38:00.896Z,41.56
2019-06-08T06:40:33.824Z,39.87
2019-06-08T06:43:06.847Z,37.29
2019-06-08T06:45:39.018Z,36.42
2019-06-08T06:48:11.615Z,36.61
2019-06-08T06:50:44.345Z,39.42
2019-06-08T06:53:16.492Z,40.02
2019-06-08T06:55:49.056Z,39.22
2019-06-08T06:58:21.180Z,38.62
2019-06-08T07:00:53.736Z,37.16
2019-06-08T07:03:26.006Z,35.46
2019-06-08T07:05:59.971Z,34.75
2019-06-08T07:08:33.111Z,35.09
2019-06-08T07:11:05.217Z,36.39
2019-06-08T07:13:38.847Z,33.96
2019-06-08T07:16:18.505Z,35.18
2019-06-08T07:18:46.163Z,36.81
2019-06-08T07:21:18.368Z,37.03
2019-06-08T07:23:51.263Z,37.94
2019-06-08T07:26:24.105Z,38.26
2019-06-08T07:28:56.178Z,38.85
2019-06-08T07:31:29.371Z,39.36
2019-06-08T07:34:01.371Z,39.23
2019-06-08T07:36:33.503Z,38.52
2019-06-08T07:39:08.696Z,36.07
2019-06-08T07:41:40.743Z,36.25
2019-06-08T07:44:12.755Z,35.90
2019-06-08T07:46:44.800Z,34.63
2019-06-08T07:49:16.978Z,32.24
2019-06-08T07:52:02.407Z,30.42
2019-06-08T07:54:25.894Z,29.43
2019-06-08T07:56:59.084Z,28.88
2019-06-08T07:59:31.394Z,30.39
2019-06-08T08:02:04.351Z,28.49
2019-06-08T08:04:36.616Z,30.86
2019-06-08T08:07:10.380Z,28.63
2019-06-08T08:09:42.544Z,27.47
2019-06-08T08:12:14.700Z,25.16
2019-06-08T08:14:47.123Z,27.34
2019-06-08T08:17:19.158Z,27.62
2019-06-08T08:19:53.022Z,27.48
2019-06-08T08:22:26.573Z,26.74
2019-06-08T08:25:04.166Z,27.22
2019-06-08T08:27:33.961Z,26.50
2019-06-08T08:30:08.438Z,23.15
2019-06-08T08:32:40.536Z,23.15
2019-06-08T08:35:12.650Z,24.67
2019-06-08T08:37:44.635Z,24.30
2019-06-08T08:40:17.930Z,24.33
2019-06-08T08:42:51.094Z,24.73
2019-06-08T08:45:24.096Z,24.32
2019-06-08T08:48:17.152Z,24.91
2019-06-08T08:50:29.675Z,24.67
2019-06-08T08:53:03.224Z,22.24
2019-06-08T08:55:35.135Z,21.73
2019-06-08T08:58:08.416Z,20.62
2019-06-08T09:00:41.166Z,22.08
2019-06-08T09:03:27.806Z,21.81
2019-06-08T09:05:48.281Z,21.54
2019-06-08T09:08:23.162Z,20.45
2019-06-08T09:10:55.374Z,20.50
2019-06-08T09:13:28.250Z,21.74
2019-06-08T09:16:03.169Z,19.81
2019-06-08T09:18:33.906Z,20.56
2019-06-08T09:21:08.145Z,21.04
2019-06-08T09:23:40.530Z,20.82
2019-06-08T09:26:13.372Z,21.23
2019-06-08T09:28:45.468Z,20.71
2019-06-08T09:31:18.660Z,20.19
2019-06-08T09:34:01.310Z,20.02
2019-06-08T09:36:24.471Z,20.08
2019-06-08T09:38:59.652Z,18.29
2019-06-08T09:41:31.292Z,18.40
2019-06-08T09:44:05.774Z,20.52
2019-06-08T09:46:38.492Z,17.97
2019-06-08T09:49:11.812Z,20.35
2019-06-08T09:51:44.184Z,19.07
2019-06-08T09:54:19.344Z,18.49
2019-06-08T09:56:53.705Z,20.32
2019-06-08T09:59:28.319Z,18.74
2019-06-08T10:02:05.509Z,20.02
2019-06-08T10:04:33.803Z,19.02
2019-06-08T10:07:08.914Z,17.16
2019-06-08T10:09:47.443Z,16.80
2019-06-08T10:12:28.078Z,17.71
2019-06-08T10:15:00.596Z,18.21
2019-06-08T10:17:32.899Z,17.97
2019-06-08T10:20:09.688Z,17.22
2019-06-08T10:22:39.994Z,16.26
2019-06-08T10:25:14.230Z,15.44
2019-06-08T10:27:46.202Z,15.08
2019-06-08T10:30:20.142Z,16.12
2019-06-08T10:32:52.371Z,18.23
2019-06-08T10:35:24.331Z,18.29
2019-06-08T10:37:58.545Z,16.24
2019-06-08T10:40:31.008Z,14.79
2019-06-08T10:43:04.500Z,14.24
2019-06-08T10:45:37.150Z,13.74
2019-06-08T10:48:09.698Z,13.60
2019-06-08T10:50:41.875Z,13.15
2019-06-08T10:53:16.539Z,13.37
2019-06-08T10:55:48.210Z,13.50
2019-06-08T10:58:21.396Z,14.22
2019-06-08T11:00:55.069Z,14.93
2019-06-08T11:03:30.417Z,15.14
2019-06-08T11:06:02.880Z,15.13
2019-06-08T11:08:34.467Z,14.80
2019-06-08T11:11:11.335Z,15.19
2019-06-08T11:13:40.871Z,15.25
2019-06-08T11:16:13.790Z,15.14
2019-06-08T11:18:50.523Z,15.22
2019-06-08T11:21:19.901Z,14.34
2019-06-08T11:24:05.865Z,15.03
2019-06-08T11:26:25.504Z,15.04
2019-06-08T11:28:58.617Z,15.72
2019-06-08T11:31:32.223Z,16.00
2019-06-08T11:34:06.188Z,17.67
2019-06-08T11:36:39.457Z,18.28
2019-06-08T11:39:12.780Z,19.38
2019-06-08T11:41:44.993Z,20.49
2019-06-08T11:44:17.929Z,22.63
2019-06-08T11:46:50.324Z,23.34
2019-06-08T11:49:22.255Z,22.91
2019-06-08T11:51:54.610Z,23.63
2019-06-08T11:54:34.271Z,24.23
2019-06-08T11:57:02.875Z,24.25
2019-06-08T11:59:37.488Z,24.94
2019-06-08T12:02:12.703Z,26.31
2019-06-08T12:04:45.479Z,26.31
2019-06-08T12:07:17.547Z,26.38
2019-06-08T12:09:50.362Z,26.38
2019-06-08T12:12:22.369Z,26.78
2019-06-08T12:14:54.362Z,26.15
2019-06-08T12:17:27.632Z,25.28
2019-06-08T12:19:59.678Z,26.20
2019-06-08T12:22:31.607Z,31.73
2019-06-08T12:25:03.924Z,31.63
2019-06-08T12:27:37.292Z,31.55
2019-06-08T12:30:17.489Z,31.55
2019-06-08T12:32:44.386Z,31.43
2019-06-08T12:35:18.067Z,32.07
2019-06-08T12:37:51.569Z,32.67
2019-06-08T12:40:24.896Z,31.65
2019-06-08T12:42:59.453Z,31.70
2019-06-08T12:45:30.472Z,32.06
2019-06-08T12:48:03.434Z,32.40
2019-06-08T12:50:35.453Z,32.65
2019-06-08T12:53:12.624Z,32.01
2019-06-08T12:55:41.109Z,31.80
2019-06-08T12:58:14.435Z,33.32
2019-06-08T13:00:48.304Z,32.28
2019-06-08T13:03:20.622Z,31.49
2019-06-08T13:05:52.550Z,32.70
2019-06-08T13:08:24.489Z,31.73
2019-06-08T13:10:57.918Z,33.08
2019-06-08T13:13:30.045Z,31.99
2019-06-08T13:16:02.596Z,32.34
2019-06-08T13:18:34.522Z,32.33
2019-06-08T13:21:21.836Z,32.26
2019-06-08T13:23:43.760Z,32.68
2019-06-08T13:26:21.653Z,32.79
2019-06-08T13:28:49.352Z,33.30
2019-06-08T13:31:24.173Z,33.45
2019-06-08T13:33:54.932Z,32.85
2019-06-08T13:36:29.540Z,32.51
2019-06-08T13:39:00.521Z,32.25
2019-06-08T13:41:34.087Z,32.40
2019-06-08T13:44:08.416Z,32.10
2019-06-08T13:46:40.894Z,31.77
2019-06-08T13:49:14.425Z,32.82
2019-06-08T13:51:47.943Z,32.86
2019-06-08T13:54:22.588Z,34.55
2019-06-08T13:56:54.026Z,34.67
2019-06-08T13:59:28.620Z,34.28
2019-06-08T14:01:59.629Z,34.76
2019-06-08T14:04:32.561Z,34.97
2019-06-08T14:07:04.654Z,34.63
2019-06-08T14:09:38.287Z,33.79
2019-06-08T14:12:10.393Z,33.95
2019-06-08T14:14:42.315Z,34.34
2019-06-08T14:17:15.531Z,34.09
2019-06-08T14:19:48.329Z,34.94
2019-06-08T14:22:22.984Z,34.89
2019-06-08T14:24:54.738Z,34.19
2019-06-08T14:27:28.544Z,34.05
2019-06-08T14:30:00.332Z,34.88
2019-06-08T14:32:33.888Z,34.68
2019-06-08T14:35:08.425Z,32.90
2019-06-08T14:37:40.499Z,32.38
2019-06-08T14:40:12.698Z,33.76
2019-06-08T14:42:44.637Z,33.79
2019-06-08T14:45:19.314Z,34.58
2019-06-08T14:47:51.997Z,34.23
2019-06-08T14:50:24.482Z,34.48
2019-06-08T14:52:58.907Z,35.01
2019-06-08T14:55:34.047Z,36.10
2019-06-08T14:58:05.562Z,36.15
2019-06-08T15:00:38.074Z,35.92
2019-06-08T15:03:10.352Z,36.86
2019-06-08T15:05:42.301Z,35.99
2019-06-08T15:08:14.709Z,36.99
2019-06-08T15:10:49.669Z,36.77
2019-06-08T15:13:21.786Z,36.77
2019-06-08T15:15:54.101Z,36.27
2019-06-08T15:18:28.323Z,35.85
2019-06-08T15:20:59.745Z,34.57
2019-06-08T15:23:32.873Z,34.17
2019-06-08T15:26:17.605Z,33.82
2019-06-08T15:28:38.671Z,34.80
2019-06-08T15:31:10.651Z,34.92
2019-06-08T15:33:42.689Z,35.21
2019-06-08T15:36:14.740Z,35.41
2019-06-08T15:38:48.026Z,35.56
2019-06-08T15:41:21.423Z,34.43
2019-06-08T15:43:53.735Z,34.11
2019-06-08T15:46:26.357Z,34.03
2019-06-08T15:48:58.395Z,34.48
2019-06-08T15:51:33.795Z,35.17
2019-06-08T15:54:04.893Z,36.19
2019-06-08T15:56:48.127Z,36.31
2019-06-08T15:59:10.473Z,36.70
2019-06-08T16:01:42.440Z,37.09
2019-06-08T16:04:14.375Z,38.15
2019-06-08T16:06:46.382Z,38.44
2019-06-08T16:09:18.355Z,39.06
2019-06-08T16:11:50.600Z,39.23
2019-06-08T16:14:22.547Z,38.18
2019-06-08T16:16:54.514Z,37.75
2019-06-08T16:19:27.463Z,36.86
2019-06-08T16:21:59.432Z,36.91
2019-06-08T16:24:31.957Z,36.42
2019-06-08T16:27:04.209Z,37.16
2019-06-08T16:29:36.424Z,36.83
2019-06-08T16:32:08.651Z,37.18
2019-06-08T16:34:40.653Z,37.78
2019-06-08T16:37:12.639Z,38.83
2019-06-08T16:39:46.595Z,38.78
2019-06-08T16:42:18.491Z,38.92
2019-06-08T16:44:50.923Z,39.40
2019-06-08T16:47:22.835Z,39.43
2019-06-08T16:49:54.801Z,39.92
2019-06-08T16:52:26.749Z,40.40
2019-06-08T16:54:58.786Z,39.69
2019-06-08T16:57:31.032Z,39.69
2019-06-08T17:00:29.861Z,39.29
2019-06-08T17:02:39.314Z,38.94
2019-06-08T17:05:11.516Z,38.77
2019-06-08T17:07:43.468Z,38.60
2019-06-08T17:10:15.557Z,38.95
2019-06-08T17:12:47.551Z,38.54
2019-06-08T17:15:19.834Z,39.85
2019-06-08T17:17:51.780Z,39.94
2019-06-08T17:20:23.758Z,40.33
2019-06-08T17:22:55.927Z,40.22
2019-06-08T17:25:28.320Z,40.31
2019-06-08T17:28:00.304Z,40.09
2019-06-08T17:30:33.798Z,40.25
2019-06-08T17:33:06.887Z,40.55
2019-06-08T17:35:39.902Z,39.89
2019-06-08T17:38:12.143Z,40.19
2019-06-08T17:40:44.430Z,40.45
2019-06-08T17:43:18.157Z,40.17
2019-06-08T17:45:50.204Z,40.36
2019-06-08T17:48:22.152Z,41.28
2019-06-08T17:50:54.277Z,41.42
2019-06-08T17:53:26.257Z,40.94
2019-06-08T17:55:58.872Z,41.08
2019-06-08T17:58:30.860Z,40.22
2019-06-08T18:01:02.877Z,40.10
2019-06-08T18:03:36.090Z,39.60
2019-06-08T18:06:08.474Z,40.32
2019-06-08T18:11:12.427Z,40.83
2019-06-08T18:13:47.853Z,39.60
2019-06-08T18:16:21.453Z,37.28
2019-06-08T18:18:53.444Z,36.62
2019-06-08T18:21:25.482Z,36.10
2019-06-08T18:23:57.473Z,37.23
2019-06-08T18:26:29.528Z,37.70
2019-06-08T18:29:02.522Z,38.80
2019-06-08T18:31:34.973Z,40.16
2019-06-08T18:34:08.413Z,40.26
2019-06-08T18:36:42.118Z,40.82
2019-06-08T18:39:14.562Z,41.25
2019-06-08T18:41:48.422Z,42.40
2019-06-08T18:44:20.629Z,42.74
2019-06-08T18:46:52.597Z,43.21
2019-06-08T18:49:28.763Z,43.95
2019-06-08T18:52:00.652Z,44.50
2019-06-08T18:54:33.178Z,45.55
2019-06-08T18:57:06.151Z,45.40
2019-06-08T18:59:45.120Z,46.24
2019-06-08T19:02:12.616Z,46.81
2019-06-08T19:04:45.631Z,47.39
2019-06-08T19:07:18.211Z,48.30
2019-06-08T19:09:51.347Z,49.19
2019-06-08T19:12:23.273Z,49.94
2019-06-08T19:14:55.641Z,50.43
2019-06-08T19:17:28.448Z,51.33
2019-06-08T19:20:01.043Z,51.84
2019-06-08T19:22:33.532Z,53.52
2019-06-08T19:25:07.687Z,54.86
2019-06-08T19:27:43.028Z,55.13
2019-06-08T19:30:13.774Z,55.34
2019-06-08T19:32:50.517Z,56.11
2019-06-08T19:35:19.729Z,57.82
2019-06-08T19:37:53.680Z,58.87
2019-06-08T19:40:27.196Z,60.00
2019-06-08T19:43:01.368Z,60.14
2019-06-08T19:45:34.345Z,60.47
2019-06-08T19:48:08.834Z,60.22
2019-06-08T19:50:41.711Z,61.45
2019-06-08T19:53:14.989Z,61.33
2019-06-08T19:55:53.852Z,60.85
2019-06-08T19:58:22.381Z,60.80
2019-06-08T20:00:55.002Z,61.74
2019-06-08T20:03:27.573Z,60.98
2019-06-08T20:06:00.104Z,60.95
2019-06-08T20:08:32.184Z,61.68
2019-06-08T20:11:04.858Z,62.38
2019-06-08T20:13:37.763Z,63.07
2019-06-08T20:16:10.046Z,63.53
2019-06-08T20:18:42.215Z,63.62
2019-06-08T20:21:14.313Z,64.41
2019-06-08T20:23:48.227Z,64.93
2019-06-08T20:26:20.208Z,64.68
2019-06-08T20:29:02.412Z,65.40
2019-06-08T20:31:27.364Z,66.73
2019-06-08T20:34:00.201Z,67.15
2019-06-08T20:36:32.260Z,67.89
2019-06-08T20:39:07.373Z,68.41
2019-06-08T20:41:39.687Z,68.83
2019-06-08T20:44:11.699Z,69.35
2019-06-08T20:46:44.275Z,69.40
2019-06-08T20:49:17.208Z,69.67
2019-06-08T20:51:50.908Z,70.05
2019-06-08T20:54:23.435Z,70.61
2019-06-08T20:56:57.878Z,71.29
2019-06-08T20:59:33.168Z,71.44
2019-06-08T21:02:02.871Z,71.36
2019-06-08T21:04:34.904Z,72.02
2019-06-08T21:07:08.865Z,72.33
2019-06-08T21:09:40.856Z,72.49
2019-06-08T21:12:13.984Z,73.06
2019-06-08T21:14:49.303Z,73.40
2019-06-08T21:17:19.818Z,73.68
2019-06-08T21:19:53.105Z,73.78
2019-06-08T21:22:27.572Z,73.78
2019-06-08T21:25:00.149Z,73.64
2019-06-08T21:27:33.466Z,74.05
2019-06-08T21:30:17.085Z,74.89
2019-06-08T21:32:40.582Z,75.05
2019-06-08T21:35:13.258Z,75.27
2019-06-08T21:37:48.159Z,75.66
2019-06-08T21:40:19.134Z,75.97
2019-06-08T21:42:55.132Z,76.03
2019-06-08T21:45:27.621Z,76.42
2019-06-08T21:48:00.557Z,76.97
2019-06-08T21:50:32.753Z,77.58
2019-06-08T21:53:04.827Z,77.69
2019-06-08T21:55:37.995Z,78.38
2019-06-08T21:58:10.470Z,79.17
2019-06-08T22:00:43.939Z,79.91
2019-06-08T22:03:17.656Z,80.15
2019-06-08T22:05:53.806Z,79.75
2019-06-08T22:08:26.225Z,79.89
2019-06-08T22:10:59.415Z,80.33
2019-06-08T22:13:32.151Z,80.90
2019-06-08T22:16:07.742Z,81.68
2019-06-08T22:18:38.763Z,81.98
2019-06-08T22:21:11.134Z,82.25
2019-06-08T22:23:44.534Z,82.85
2019-06-08T22:26:17.884Z,82.89
2019-06-08T22:28:52.039Z,82.63
2019-06-08T22:31:23.875Z,83.25
2019-06-08T22:33:59.054Z,83.21
2019-06-08T22:36:29.652Z,83.54
2019-06-08T22:39:02.585Z,84.55
2019-06-08T22:41:37.506Z,85.03
2019-06-08T22:44:09.834Z,85.57
2019-06-08T22:46:42.108Z,86.37
2019-06-08T22:49:15.320Z,87.12
2019-06-08T22:51:48.366Z,86.98
2019-06-08T22:54:20.509Z,86.69
2019-06-08T22:56:53.839Z,87.27
2019-06-08T22:59:27.707Z,88.00
2019-06-08T23:02:03.706Z,88.67
2019-06-08T23:04:34.508Z,89.76
2019-06-08T23:07:09.475Z,89.71
2019-06-08T23:09:41.305Z,90.05
2019-06-08T23:12:18.051Z,90.46
2019-06-08T23:14:49.415Z,90.59
2019-06-08T23:17:30.377Z,91.00
2019-06-08T23:20:11.011Z,91.04
2019-06-08T23:22:42.887Z,91.79
2019-06-08T23:25:18.208Z,92.04
2019-06-08T23:27:53.576Z,92.33
2019-06-08T23:30:27.850Z,92.90
2019-06-08T23:33:02.715Z,93.33
2019-06-08T23:35:47.928Z,93.64
2019-06-08T23:38:11.103Z,93.69
2019-06-08T23:40:44.228Z,94.13
2019-06-08T23:43:19.698Z,94.67
2019-06-08T23:45:58.326Z,94.88
2019-06-08T23:48:30.785Z,95.66
2019-06-08T23:51:04.380Z,96.27
2019-06-08T23:53:38.857Z,96.98
2019-06-08T23:56:11.858Z,97.31
2019-06-08T23:58:44.441Z,97.68
